Private Wetterstation Wechselburg
Wetterdaten: Donnerstag, 20.06.2013
Datum Zeit Temp. +2m Bodentemp. Temp.+5cm Temp. Wind Windchill X Diff Temp. Feuchte +2m Feuchte +5cm Sonnenschein Luftdruck Regen Wind Richtung Richtung Sonnenschein UV Taupunkt Windchill Windben
20.06.2013 00:00 22,7 C 28,0 C 22,9 C 22,6 C 22,5 C 0,0 C 84 % 80 % 0 % 1009,9 hPa 0,0 l/m 0,0 km/h (0 Bft) N 360 0 min 0,0 UV-I 19,9 C 22,5 C 0,0 km/h (0 Bft)
20.06.2013 00:05 22,7 C 28,0 C 22,9 C 22,6 C 22,4 C 0,0 C 84 % 80 % 0 % 1009,9 hPa 0,0 l/m 0,0 km/h (0 Bft) N 360 0 min 0,0 UV-I 19,9 C 22,4 C 0,0 km/h (0 Bft)
20.06.2013 00:10 22,5 C 28,1 C 22,6 C 22,4 C 22,3 C 0,0 C 84 % 80 % 0 % 1009,9 hPa 0,0 l/m 0,0 km/h (0 Bft) NO 45 0 min 0,0 UV-I 19,7 C 22,3 C 0,0 km/h (0 Bft)
20.06.2013 00:15 22,3 C 28,1 C 22,6 C 22,4 C 22,4 C 0,1 C 85 % 80 % 0 % 1010,0 hPa 0,0 l/m 0,3 km/h (0 Bft) O 90 0 min 0,0 UV-I 19,7 C 22,4 C 1,9 km/h (1 Bft)
20.06.2013 00:20 22,2 C 28,1 C 22,6 C 22,6 C 22,6 C 0,4 C 85 % 80 % 0 % 1010,0 hPa 0,0 l/m 1,0 km/h (0 Bft) O 90 0 min 0,0 UV-I 19,6 C 22,6 C 1,9 km/h (1 Bft)
20.06.2013 00:25 22,3 C 28,1 C 22,5 C 22,7 C 22,7 C 0,4 C 85 % 80 % 0 % 1010,0 hPa 0,0 l/m 1,0 km/h (0 Bft) O-NO 67 0 min 0,0 UV-I 19,7 C 22,7 C 0,0 km/h (0 Bft)
20.06.2013 00:30 22,1 C 28,0 C 22,4 C 22,5 C 22,5 C 0,4 C 85 % 80 % 0 % 1010,0 hPa 0,0 l/m 0,2 km/h (0 Bft) O-SO 112 0 min 0,0 UV-I 19,5 C 22,5 C 0,0 km/h (0 Bft)
20.06.2013 00:35 22,1 C 28,0 C 22,4 C 22,4 C 22,4 C 0,3 C 85 % 80 % 0 % 1009,7 hPa 0,0 l/m 0,0 km/h (0 Bft) SW 225 0 min 0,0 UV-I 19,5 C 22,4 C 0,0 km/h (0 Bft)
20.06.2013 00:41 22,0 C 28,0 C 22,3 C 22,0 C 22,0 C 0,0 C 85 % 80 % 0 % 1009,7 hPa 0,0 l/m 0,2 km/h (0 Bft) N 0 0 min 0,0 UV-I 19,4 C 22,0 C 2,4 km/h (1 Bft)
20.06.2013 00:58 21,6 C 28,0 C 22,2 C 21,7 C 21,7 C 0,1 C 85 % 81 % 0 % 1009,7 hPa 0,0 l/m 0,0 km/h (0 Bft) W-SW 247 0 min 0,0 UV-I 19,0 C 21,7 C 0,0 km/h (0 Bft)
20.06.2013 01:00 21,6 C 28,0 C 22,1 C 21,6 C 21,6 C 0,0 C 86 % 81 % 0 % 1009,7 hPa 0,0 l/m 0,2 km/h (0 Bft) SW 225 0 min 0,0 UV-I 19,2 C 21,6 C 0,0 km/h (0 Bft)
20.06.2013 01:05 21,5 C 28,0 C 22,1 C 21,5 C 21,5 C 0,0 C 86 % 81 % 0 % 1009,7 hPa 0,0 l/m 0,3 km/h (0 Bft) N 360 0 min 0,0 UV-I 19,1 C 21,5 C 0,0 km/h (0 Bft)
20.06.2013 01:10 21,5 C 28,0 C 22,1 C 21,5 C 21,5 C 0,0 C 86 % 81 % 0 % 1009,7 hPa 0,0 l/m 0,2 km/h (0 Bft) O-SO 112 0 min 0,0 UV-I 19,1 C 21,5 C 0,0 km/h (0 Bft)
20.06.2013 01:15 21,5 C 28,0 C 22,0 C 21,5 C 21,5 C 0,0 C 86 % 81 % 0 % 1009,5 hPa 0,0 l/m 0,0 km/h (0 Bft) W-NW 292 0 min 0,0 UV-I 19,1 C 21,5 C 0,0 km/h (0 Bft)
20.06.2013 01:20 21,3 C 27,9 C 22,2 C 21,9 C 21,9 C 0,6 C 87 % 81 % 0 % 1009,5 hPa 0,0 l/m 0,2 km/h (0 Bft) W 270 0 min 0,0 UV-I 19,0 C 21,9 C 0,0 km/h (0 Bft)
20.06.2013 01:25 21,5 C 27,9 C 22,3 C 22,2 C 22,2 C 0,7 C 87 % 81 % 0 % 1009,5 hPa 0,0 l/m 0,2 km/h (0 Bft) N 360 0 min 0,0 UV-I 19,2 C 22,2 C 0,0 km/h (0 Bft)
20.06.2013 01:30 21,5 C 27,9 C 22,3 C 22,5 C 22,5 C 1,0 C 86 % 81 % 0 % 1009,5 hPa 0,0 l/m 0,0 km/h (0 Bft) W 270 0 min 0,0 UV-I 19,1 C 22,5 C 0,0 km/h (0 Bft)
20.06.2013 01:35 21,5 C 27,8 C 22,3 C 22,7 C 22,7 C 1,2 C 86 % 81 % 0 % 1009,7 hPa 0,0 l/m 0,3 km/h (0 Bft) NO 45 0 min 0,0 UV-I 19,1 C 22,7 C 0,0 km/h (0 Bft)
20.06.2013 01:40 21,7 C 27,8 C 22,4 C 23,1 C 23,1 C 1,4 C 86 % 80 % 0 % 1009,7 hPa 0,0 l/m 0,3 km/h (0 Bft) SO 135 0 min 0,1 UV-I 19,3 C 23,1 C 3,9 km/h (1 Bft)
20.06.2013 01:45 21,9 C 27,8 C 22,4 C 23,1 C 23,1 C 1,2 C 85 % 80 % 0 % 1009,7 hPa 0,0 l/m 0,2 km/h (0 Bft) W-NW 292 0 min 0,1 UV-I 19,3 C 23,1 C 0,0 km/h (0 Bft)
20.06.2013 01:50 21,9 C 27,7 C 22,4 C 23,1 C 23,1 C 1,2 C 85 % 80 % 0 % 1009,7 hPa 0,0 l/m 0,3 km/h (0 Bft) W-SW 247 0 min 0,0 UV-I 19,3 C 23,1 C 2,7 km/h (1 Bft)
20.06.2013 01:55 22,0 C 27,7 C 22,5 C 23,0 C 23,0 C 1,0 C 84 % 80 % 0 % 1009,6 hPa 0,0 l/m 0,5 km/h (0 Bft) NO 45 0 min 0,0 UV-I 19,2 C 23,0 C 0,0 km/h (0 Bft)
20.06.2013 02:00 22,1 C 27,7 C 22,4 C 23,0 C 23,0 C 0,9 C 84 % 80 % 0 % 1009,6 hPa 0,0 l/m 0,6 km/h (0 Bft) N-NW 337 0 min 0,0 UV-I 19,3 C 23,0 C 2,9 km/h (1 Bft)
20.06.2013 02:05 22,1 C 27,7 C 22,3 C 22,9 C 22,9 C 0,8 C 84 % 80 % 0 % 1009,6 hPa 0,0 l/m 0,3 km/h (0 Bft) S 180 0 min 0,0 UV-I 19,3 C 22,9 C 0,0 km/h (0 Bft)
20.06.2013 02:10 22,0 C 27,7 C 22,3 C 22,8 C 22,8 C 0,8 C 84 % 80 % 0 % 1009,6 hPa 0,0 l/m 0,0 km/h (0 Bft) O-NO 67 0 min 0,0 UV-I 19,2 C 22,8 C 0,0 km/h (0 Bft)
20.06.2013 02:15 22,0 C 27,7 C 22,3 C 22,7 C 22,7 C 0,7 C 84 % 80 % 0 % 1009,7 hPa 0,0 l/m 0,0 km/h (0 Bft) NO 45 0 min 0,0 UV-I 19,2 C 22,7 C 0,0 km/h (0 Bft)
20.06.2013 02:20 22,0 C 27,7 C 22,3 C 22,5 C 22,5 C 0,5 C 84 % 80 % 0 % 1009,7 hPa 0,0 l/m 0,0 km/h (0 Bft) NW 315 0 min 0,0 UV-I 19,2 C 22,5 C 0,0 km/h (0 Bft)
20.06.2013 02:25 21,9 C 27,7 C 22,3 C 22,3 C 22,3 C 0,4 C 84 % 80 % 0 % 1009,7 hPa 0,0 l/m 0,0 km/h (0 Bft) O-NO 67 0 min 0,0 UV-I 19,1 C 22,3 C 0,0 km/h (0 Bft)
20.06.2013 02:30 21,9 C 27,7 C 22,1 C 22,3 C 22,3 C 0,4 C 83 % 80 % 0 % 1009,7 hPa 0,0 l/m 0,0 km/h (0 Bft) O-NO 67 0 min 0,0 UV-I 18,9 C 22,3 C 0,0 km/h (0 Bft)
20.06.2013 02:35 21,8 C 27,8 C 22,0 C 22,2 C 22,2 C 0,4 C 84 % 80 % 0 % 1009,7 hPa 0,0 l/m 0,0 km/h (0 Bft) O-SO 112 0 min 0,0 UV-I 19,0 C 22,2 C 0,0 km/h (0 Bft)
20.06.2013 02:40 21,8 C 27,8 C 21,9 C 22,1 C 22,1 C 0,3 C 84 % 80 % 0 % 1009,7 hPa 0,0 l/m 0,0 km/h (0 Bft) O-SO 112 0 min 0,0 UV-I 19,0 C 22,1 C 0,0 km/h (0 Bft)
20.06.2013 02:45 21,7 C 27,8 C 21,8 C 22,1 C 22,1 C 0,4 C 83 % 80 % 0 % 1009,7 hPa 0,0 l/m 0,0 km/h (0 Bft) S-SW 202 0 min 0,0 UV-I 18,7 C 22,1 C 0,0 km/h (0 Bft)
20.06.2013 02:50 21,6 C 27,7 C 21,8 C 21,9 C 21,9 C 0,3 C 83 % 80 % 0 % 1009,7 hPa 0,0 l/m 0,0 km/h (0 Bft) W-NW 292 0 min 0,0 UV-I 18,6 C 21,9 C 0,0 km/h (0 Bft)
20.06.2013 02:55 21,6 C 27,7 C 21,9 C 21,8 C 21,8 C 0,2 C 83 % 80 % 0 % 1009,2 hPa 0,0 l/m 0,0 km/h (0 Bft) NO 45 0 min 0,0 UV-I 18,6 C 21,8 C 0,0 km/h (0 Bft)
20.06.2013 03:00 21,5 C 27,7 C 21,7 C 21,8 C 21,8 C 0,3 C 83 % 80 % 0 % 1009,2 hPa 0,0 l/m 0,0 km/h (0 Bft) W 270 0 min 0,0 UV-I 18,5 C 21,8 C 1,8 km/h (1 Bft)
20.06.2013 03:05 21,5 C 27,7 C 21,7 C 21,8 C 21,8 C 0,3 C 83 % 80 % 0 % 1009,2 hPa 0,0 l/m 0,0 km/h (0 Bft) NO 45 0 min 0,0 UV-I 18,5 C 21,8 C 0,0 km/h (0 Bft)
20.06.2013 03:10 21,5 C 27,6 C 21,6 C 21,8 C 21,8 C 0,3 C 83 % 80 % 0 % 1009,2 hPa 0,0 l/m 0,3 km/h (0 Bft) S 180 0 min 0,0 UV-I 18,5 C 21,8 C 0,0 km/h (0 Bft)
20.06.2013 03:15 21,5 C 27,6 C 21,7 C 21,8 C 21,8 C 0,3 C 83 % 80 % 0 % 1009,1 hPa 0,0 l/m 0,5 km/h (0 Bft) N-NO 22 0 min 0,0 UV-I 18,5 C 21,8 C 0,0 km/h (0 Bft)
20.06.2013 03:20 21,5 C 27,6 C 21,7 C 21,9 C 21,9 C 0,4 C 83 % 80 % 0 % 1009,1 hPa 0,0 l/m 0,0 km/h (0 Bft) NW 315 0 min 0,0 UV-I 18,5 C 21,9 C 0,0 km/h (0 Bft)
20.06.2013 03:25 21,5 C 27,6 C 21,7 C 21,8 C 21,8 C 0,3 C 83 % 80 % 0 % 1009,1 hPa 0,0 l/m 0,0 km/h (0 Bft) NW 315 0 min 0,0 UV-I 18,5 C 21,8 C 0,0 km/h (0 Bft)
20.06.2013 03:30 21,4 C 27,6 C 21,7 C 21,9 C 21,9 C 0,5 C 83 % 80 % 0 % 1009,1 hPa 0,0 l/m 0,2 km/h (0 Bft) NW 315 0 min 0,0 UV-I 18,4 C 21,9 C 0,0 km/h (0 Bft)
20.06.2013 03:35 21,4 C 27,5 C 21,7 C 21,9 C 21,9 C 0,5 C 83 % 80 % 0 % 1008,9 hPa 0,0 l/m 0,2 km/h (0 Bft) NW 315 0 min 0,0 UV-I 18,4 C 21,9 C 0,0 km/h (0 Bft)
20.06.2013 03:40 21,5 C 27,5 C 21,9 C 21,9 C 21,9 C 0,4 C 83 % 80 % 0 % 1008,9 hPa 0,0 l/m 0,0 km/h (0 Bft) W-SW 247 0 min 0,1 UV-I 18,5 C 21,9 C 0,0 km/h (0 Bft)
20.06.2013 03:45 21,6 C 27,5 C 21,9 C 21,9 C 21,9 C 0,3 C 83 % 80 % 0 % 1008,9 hPa 0,0 l/m 0,0 km/h (0 Bft) W-NW 292 0 min 0,1 UV-I 18,6 C 21,9 C 0,0 km/h (0 Bft)
20.06.2013 03:50 21,7 C 27,5 C 21,8 C 22,0 C 22,0 C 0,3 C 83 % 80 % 0 % 1008,9 hPa 0,0 l/m 0,0 km/h (0 Bft) N-NW 337 0 min 0,1 UV-I 18,7 C 22,0 C 0,0 km/h (0 Bft)
20.06.2013 03:55 21,6 C 27,5 C 21,9 C 22,0 C 22,0 C 0,4 C 83 % 80 % 0 % 1009,1 hPa 0,0 l/m 0,0 km/h (0 Bft) N-NO 22 0 min 0,1 UV-I 18,6 C 22,0 C 0,0 km/h (0 Bft)
20.06.2013 04:00 21,6 C 27,5 C 21,9 C 21,9 C 21,9 C 0,3 C 83 % 80 % 0 % 1009,1 hPa 0,0 l/m 0,0 km/h (0 Bft) N-NW 337 0 min 0,0 UV-I 18,6 C 21,9 C 0,0 km/h (0 Bft)
20.06.2013 04:05 21,7 C 27,5 C 21,7 C 21,7 C 21,7 C 0,0 C 83 % 80 % 0 % 1009,1 hPa 0,0 l/m 0,0 km/h (0 Bft) N-NW 337 0 min 0,0 UV-I 18,7 C 21,7 C 0,0 km/h (0 Bft)
20.06.2013 04:10 21,6 C 27,5 C 21,7 C 21,6 C 21,5 C 0,0 C 83 % 80 % 0 % 1009,1 hPa 0,0 l/m 0,0 km/h (0 Bft) N-NW 337 0 min 0,0 UV-I 18,6 C 21,5 C 0,0 km/h (0 Bft)
20.06.2013 04:15 21,5 C 27,5 C 21,5 C 21,5 C 21,5 C 0,0 C 83 % 80 % 0 % 1009,1 hPa 0,0 l/m 0,0 km/h (0 Bft) N-NW 337 0 min 0,0 UV-I 18,5 C 21,5 C 0,0 km/h (0 Bft)
20.06.2013 04:20 21,5 C 27,5 C 21,4 C 21,4 C 21,3 C 0,0 C 83 % 80 % 0 % 1009,1 hPa 0,0 l/m 0,0 km/h (0 Bft) O-NO 67 0 min 0,0 UV-I 18,5 C 21,3 C 0,0 km/h (0 Bft)
20.06.2013 04:25 21,3 C 27,5 C 21,3 C 21,3 C 21,3 C 0,0 C 83 % 81 % 0 % 1009,1 hPa 0,0 l/m 0,0 km/h (0 Bft) O-NO 67 0 min 0,0 UV-I 18,3 C 21,3 C 0,0 km/h (0 Bft)
20.06.2013 04:30 21,2 C 27,6 C 21,2 C 21,3 C 21,3 C 0,1 C 83 % 81 % 0 % 1009,1 hPa 0,0 l/m 0,0 km/h (0 Bft) O 90 0 min 0,1 UV-I 18,2 C 21,3 C 0,0 km/h (0 Bft)
20.06.2013 04:35 21,1 C 27,6 C 21,2 C 21,1 C 21,1 C 0,0 C 83 % 81 % 0 % 1009,2 hPa 0,0 l/m 0,0 km/h (0 Bft) O 90 0 min 0,1 UV-I 18,1 C 21,1 C 0,0 km/h (0 Bft)
20.06.2013 04:40 21,1 C 27,6 C 21,1 C 21,1 C 21,0 C 0,0 C 83 % 80 % 0 % 1009,2 hPa 0,0 l/m 0,0 km/h (0 Bft) N-NW 337 0 min 0,1 UV-I 18,1 C 21,0 C 0,0 km/h (0 Bft)
20.06.2013 04:45 20,9 C 27,6 C 21,0 C 20,9 C 20,8 C 0,0 C 83 % 81 % 0 % 1009,2 hPa 0,0 l/m 0,0 km/h (0 Bft) NW 315 0 min 0,1 UV-I 17,9 C 20,8 C 0,0 km/h (0 Bft)
20.06.2013 04:50 20,8 C 27,6 C 21,0 C 20,7 C 20,6 C 0,0 C 84 % 81 % 0 % 1009,2 hPa 0,0 l/m 0,0 km/h (0 Bft) N-NW 337 0 min 0,1 UV-I 18,0 C 20,6 C 0,0 km/h (0 Bft)
20.06.2013 04:55 20,7 C 27,6 C 20,9 C 20,6 C 20,5 C 0,0 C 84 % 81 % 0 % 1009,2 hPa 0,0 l/m 0,0 km/h (0 Bft) N-NW 337 0 min 0,1 UV-I 17,9 C 20,5 C 0,0 km/h (0 Bft)
20.06.2013 05:00 20,5 C 27,6 C 20,7 C 20,5 C 20,4 C 0,0 C 84 % 81 % 0 % 1009,2 hPa 0,7 l/m 0,0 km/h (0 Bft) SO 135 0 min 0,1 UV-I 17,7 C 20,4 C 0,0 km/h (0 Bft)
20.06.2013 05:05 20,5 C 27,6 C 20,6 C 20,4 C 20,3 C 0,0 C 84 % 81 % 0 % 1009,2 hPa 0,0 l/m 0,0 km/h (0 Bft) SO 135 0 min 0,1 UV-I 17,7 C 20,3 C 0,0 km/h (0 Bft)
20.06.2013 05:10 20,3 C 27,6 C 20,5 C 20,3 C 20,2 C 0,0 C 85 % 81 % 0 % 1009,2 hPa 0,0 l/m 0,0 km/h (0 Bft) SO 135 0 min 0,2 UV-I 17,7 C 20,2 C 0,0 km/h (0 Bft)
20.06.2013 05:15 20,1 C 27,6 C 20,7 C 20,1 C 20,1 C 0,0 C 85 % 81 % 0 % 1009,6 hPa 0,0 l/m 0,0 km/h (0 Bft) S-SW 202 0 min 0,2 UV-I 17,5 C 20,1 C 0,0 km/h (0 Bft)
20.06.2013 05:20 20,1 C 27,6 C 20,5 C 20,1 C 20,0 C 0,0 C 85 % 81 % 0 % 1009,6 hPa 0,0 l/m 0,0 km/h (0 Bft) S-SW 202 0 min 0,2 UV-I 17,5 C 20,0 C 0,0 km/h (0 Bft)
20.06.2013 05:25 19,9 C 27,6 C 20,5 C 19,9 C 19,8 C 0,0 C 85 % 81 % 0 % 1009,6 hPa 0,0 l/m 0,0 km/h (0 Bft) O-NO 67 0 min 0,2 UV-I 17,3 C 19,8 C 0,0 km/h (0 Bft)
20.06.2013 05:30 19,8 C 27,6 C 20,4 C 19,8 C 19,8 C 0,0 C 85 % 81 % 0 % 1009,6 hPa 0,0 l/m 0,0 km/h (0 Bft) O-NO 67 0 min 0,2 UV-I 17,2 C 19,8 C 0,0 km/h (0 Bft)
20.06.2013 05:35 19,7 C 27,6 C 20,4 C 19,8 C 19,8 C 0,1 C 85 % 81 % 3 % 1009,8 hPa 0,0 l/m 0,0 km/h (0 Bft) N-NO 22 0 min 0,2 UV-I 17,1 C 19,8 C 0,0 km/h (0 Bft)
20.06.2013 05:40 19,6 C 27,6 C 20,4 C 19,8 C 19,8 C 0,2 C 86 % 81 % 5 % 1009,8 hPa 0,7 l/m 0,0 km/h (0 Bft) O-NO 67 0 min 0,3 UV-I 17,2 C 19,8 C 0,0 km/h (0 Bft)
20.06.2013 05:45 19,6 C 27,6 C 20,4 C 19,9 C 19,9 C 0,3 C 86 % 81 % 8 % 1009,8 hPa 0,0 l/m 0,0 km/h (0 Bft) O-NO 67 0 min 0,3 UV-I 17,2 C 19,9 C 0,0 km/h (0 Bft)
20.06.2013 05:50 19,5 C 27,5 C 20,4 C 20,0 C 20,0 C 0,5 C 86 % 81 % 13 % 1009,8 hPa 0,0 l/m 0,0 km/h (0 Bft) N-NO 22 0 min 0,4 UV-I 17,1 C 20,0 C 0,0 km/h (0 Bft)
20.06.2013 05:55 19,5 C 27,5 C 20,5 C 20,0 C 20,0 C 0,5 C 87 % 81 % 13 % 1009,9 hPa 0,0 l/m 0,0 km/h (0 Bft) W 270 0 min 0,4 UV-I 17,3 C 20,0 C 0,0 km/h (0 Bft)
20.06.2013 06:00 19,5 C 27,5 C 20,4 C 20,0 C 20,0 C 0,5 C 87 % 81 % 13 % 1009,9 hPa 0,0 l/m 0,0 km/h (0 Bft) W 270 0 min 0,5 UV-I 17,3 C 20,0 C 0,0 km/h (0 Bft)
20.06.2013 06:05 19,4 C 27,5 C 20,5 C 20,1 C 20,1 C 0,7 C 87 % 81 % 18 % 1009,9 hPa 0,0 l/m 0,0 km/h (0 Bft) W-SW 247 0 min 0,5 UV-I 17,2 C 20,1 C 0,0 km/h (0 Bft)
20.06.2013 06:10 19,5 C 27,5 C 20,6 C 20,3 C 20,3 C 0,8 C 87 % 81 % 21 % 1009,9 hPa 0,0 l/m 0,0 km/h (0 Bft) W 270 0 min 0,6 UV-I 17,3 C 20,3 C 0,0 km/h (0 Bft)
20.06.2013 06:15 19,4 C 27,5 C 20,6 C 20,4 C 20,4 C 1,0 C 87 % 81 % 26 % 1010,1 hPa 0,7 l/m 0,0 km/h (0 Bft) W-SW 247 0 min 0,6 UV-I 17,2 C 20,4 C 1,6 km/h (1 Bft)
20.06.2013 06:20 19,4 C 27,4 C 20,7 C 20,6 C 20,6 C 1,2 C 87 % 81 % 32 % 1010,1 hPa 0,0 l/m 0,0 km/h (0 Bft) W-SW 247 0 min 0,7 UV-I 17,2 C 20,6 C 0,0 km/h (0 Bft)
20.06.2013 06:25 19,4 C 27,5 C 20,7 C 20,6 C 20,6 C 1,2 C 87 % 81 % 32 % 1010,1 hPa 0,0 l/m 1,1 km/h (1 Bft) S 180 0 min 0,7 UV-I 17,2 C 20,6 C 2,3 km/h (1 Bft)
20.06.2013 06:30 19,5 C 27,4 C 20,8 C 20,8 C 20,8 C 1,3 C 88 % 81 % 34 % 1010,1 hPa 0,0 l/m 1,8 km/h (1 Bft) O-NO 67 0 min 0,7 UV-I 17,5 C 20,8 C 4,5 km/h (1 Bft)
20.06.2013 06:35 19,6 C 27,4 C 21,1 C 21,1 C 21,1 C 1,5 C 88 % 81 % 39 % 1010,5 hPa 0,0 l/m 1,3 km/h (1 Bft) S 180 0 min 0,7 UV-I 17,6 C 21,1 C 0,0 km/h (0 Bft)
20.06.2013 06:41 19,9 C 27,4 C 21,3 C 21,5 C 21,5 C 1,6 C 88 % 81 % 42 % 1010,5 hPa 0,0 l/m 1,9 km/h (1 Bft) N 0 0 min 0,7 UV-I 17,8 C 21,5 C 4,8 km/h (1 Bft)
20.06.2013 07:00 20,4 C 27,3 C 21,7 C 23,3 C 23,3 C 2,9 C 87 % 81 % 76 % 1010,5 hPa 0,0 l/m 1,0 km/h (0 Bft) S-SO 157 19 min 0,7 UV-I 18,2 C 23,3 C 0,0 km/h (0 Bft)
20.06.2013 07:05 20,4 C 27,2 C 21,9 C 24,1 C 24,1 C 3,7 C 87 % 81 % 97 % 1010,5 hPa 0,0 l/m 1,0 km/h (0 Bft) W-NW 292 5 min 0,7 UV-I 18,2 C 24,1 C 0,0 km/h (0 Bft)
20.06.2013 07:10 20,7 C 27,3 C 22,2 C 24,5 C 24,5 C 3,8 C 87 % 80 % 100 % 1010,5 hPa 0,7 l/m 1,6 km/h (1 Bft) W 270 5 min 0,5 UV-I 18,5 C 24,5 C 6,1 km/h (2 Bft)
20.06.2013 07:15 20,9 C 27,2 C 22,3 C 24,9 C 24,9 C 4,0 C 86 % 80 % 100 % 1011,1 hPa 0,0 l/m 1,9 km/h (1 Bft) SO 135 5 min 0,5 UV-I 18,5 C 24,9 C 1,6 km/h (1 Bft)
20.06.2013 07:20 21,4 C 27,2 C 22,7 C 25,9 C 25,9 C 4,5 C 86 % 80 % 100 % 1011,1 hPa 0,0 l/m 2,6 km/h (1 Bft) N-NW 337 5 min 0,6 UV-I 19,0 C 25,9 C 4,8 km/h (1 Bft)
20.06.2013 07:25 21,6 C 27,1 C 22,9 C 26,2 C 26,2 C 4,6 C 86 % 80 % 100 % 1011,1 hPa 0,0 l/m 3,2 km/h (1 Bft) NO 45 5 min 0,6 UV-I 19,2 C 26,2 C 5,3 km/h (1 Bft)
20.06.2013 07:30 21,9 C 27,1 C 23,1 C 26,7 C 26,7 C 4,8 C 86 % 80 % 100 % 1011,1 hPa 0,0 l/m 3,9 km/h (1 Bft) N 360 5 min 0,0 UV-I 19,4 C 26,7 C 7,9 km/h (2 Bft)
20.06.2013 07:35 22,0 C 27,1 C 23,1 C 26,7 C 26,7 C 4,7 C 85 % 80 % 100 % 1011,1 hPa 0,0 l/m 4,2 km/h (1 Bft) O-NO 67 5 min 0,0 UV-I 19,4 C 26,7 C 7,6 km/h (2 Bft)
20.06.2013 07:40 22,3 C 27,1 C 23,1 C 27,1 C 27,1 C 4,8 C 85 % 80 % 100 % 1011,1 hPa 0,7 l/m 3,7 km/h (1 Bft) NW 315 5 min 0,0 UV-I 19,7 C 27,1 C 14,6 km/h (3 Bft)
20.06.2013 07:45 22,2 C 27,1 C 23,2 C 27,7 C 27,7 C 5,5 C 85 % 80 % 100 % 1011,1 hPa 0,0 l/m 2,7 km/h (1 Bft) N-NO 22 5 min 0,0 UV-I 19,6 C 27,7 C 2,1 km/h (1 Bft)
20.06.2013 07:50 22,6 C 27,1 C 23,5 C 28,7 C 28,7 C 6,1 C 85 % 80 % 100 % 1011,1 hPa 0,0 l/m 2,3 km/h (1 Bft) O-SO 112 5 min 0,0 UV-I 19,9 C 28,7 C 4,2 km/h (1 Bft)
20.06.2013 07:55 22,8 C 27,0 C 23,5 C 28,6 C 28,6 C 5,8 C 84 % 80 % 100 % 1011,4 hPa 0,0 l/m 2,7 km/h (1 Bft) O-NO 67 5 min 0,0 UV-I 19,9 C 28,6 C 3,5 km/h (1 Bft)
20.06.2013 08:00 23,2 C 27,1 C 23,8 C 29,4 C 29,4 C 6,2 C 84 % 80 % 100 % 1011,4 hPa 0,0 l/m 2,4 km/h (1 Bft) O-SO 112 5 min 0,0 UV-I 20,3 C 29,4 C 4,5 km/h (1 Bft)
20.06.2013 08:05 23,6 C 27,1 C 23,9 C 29,5 C 29,5 C 5,9 C 83 % 80 % 100 % 1011,4 hPa 0,7 l/m 2,9 km/h (1 Bft) O 90 5 min 0,0 UV-I 20,5 C 29,5 C 7,1 km/h (2 Bft)
20.06.2013 08:10 23,6 C 27,0 C 24,0 C 28,8 C 28,8 C 5,2 C 82 % 79 % 100 % 1011,4 hPa 0,0 l/m 5,5 km/h (1 Bft) O-NO 67 5 min 0,0 UV-I 20,3 C 28,8 C 4,0 km/h (1 Bft)
20.06.2013 08:15 23,8 C 27,0 C 24,1 C 29,1 C 29,1 C 5,3 C 83 % 79 % 100 % 1011,1 hPa 0,0 l/m 4,5 km/h (1 Bft) O-NO 67 5 min 0,0 UV-I 20,7 C 29,1 C 2,6 km/h (1 Bft)
20.06.2013 08:20 24,1 C 26,9 C 24,2 C 29,2 C 29,2 C 5,1 C 81 % 79 % 100 % 1011,1 hPa 0,0 l/m 4,2 km/h (1 Bft) O 90 5 min 0,0 UV-I 20,6 C 29,2 C 6,4 km/h (2 Bft)
20.06.2013 08:25 24,1 C 27,0 C 24,4 C 29,1 C 29,1 C 5,0 C 82 % 79 % 100 % 1011,1 hPa 0,0 l/m 5,0 km/h (1 Bft) N 360 5 min 0,0 UV-I 20,8 C 29,1 C 3,4 km/h (1 Bft)
20.06.2013 08:30 24,5 C 27,0 C 24,7 C 29,8 C 29,8 C 5,3 C 82 % 79 % 100 % 1011,1 hPa 0,0 l/m 3,4 km/h (1 Bft) O 90 5 min 0,0 UV-I 21,2 C 29,8 C 4,3 km/h (1 Bft)
20.06.2013 08:35 24,8 C 27,0 C 24,5 C 29,8 C 29,8 C 5,0 C 80 % 78 % 100 % 1011,3 hPa 0,0 l/m 3,9 km/h (1 Bft) O 90 5 min 0,0 UV-I 21,1 C 29,8 C 6,4 km/h (2 Bft)
20.06.2013 08:40 24,7 C 27,0 C 24,5 C 29,2 C 29,2 C 4,5 C 80 % 79 % 100 % 1011,3 hPa 0,0 l/m 5,1 km/h (1 Bft) O-NO 67 5 min 0,0 UV-I 21,0 C 29,2 C 2,3 km/h (1 Bft)
20.06.2013 08:45 24,9 C 27,0 C 24,5 C 29,4 C 29,4 C 4,5 C 80 % 79 % 100 % 1011,3 hPa 0,0 l/m 4,2 km/h (1 Bft) O-NO 67 5 min 0,0 UV-I 21,2 C 29,4 C 3,9 km/h (1 Bft)
20.06.2013 08:50 25,2 C 27,0 C 24,5 C 29,8 C 29,8 C 4,6 C 80 % 79 % 100 % 1011,3 hPa 0,0 l/m 2,7 km/h (1 Bft) O 90 5 min 0,0 UV-I 21,5 C 29,8 C 2,9 km/h (1 Bft)
20.06.2013 08:55 25,3 C 26,9 C 24,7 C 29,9 C 29,9 C 4,6 C 78 % 79 % 100 % 1011,6 hPa 0,0 l/m 3,9 km/h (1 Bft) O 90 5 min 0,0 UV-I 21,2 C 29,9 C 7,6 km/h (2 Bft)
20.06.2013 09:00 25,1 C 26,9 C 24,7 C 29,6 C 29,6 C 4,5 C 79 % 79 % 100 % 1011,6 hPa 0,0 l/m 5,6 km/h (1 Bft) O-NO 67 5 min 0,0 UV-I 21,2 C 29,6 C 6,1 km/h (2 Bft)
20.06.2013 09:05 25,1 C 26,9 C 24,5 C 28,9 C 28,9 C 3,8 C 78 % 79 % 100 % 1011,6 hPa 0,0 l/m 6,4 km/h (2 Bft) O-SO 112 5 min 0,0 UV-I 21,0 C 28,9 C 5,5 km/h (1 Bft)
20.06.2013 09:10 24,9 C 26,9 C 24,5 C 28,7 C 28,7 C 3,8 C 80 % 79 % 100 % 1011,6 hPa 0,0 l/m 5,6 km/h (1 Bft) O-SO 112 5 min 0,0 UV-I 21,2 C 28,7 C 7,9 km/h (2 Bft)
20.06.2013 09:15 25,1 C 26,9 C 24,7 C 29,2 C 29,2 C 4,1 C 79 % 79 % 100 % 1011,6 hPa 0,0 l/m 5,1 km/h (1 Bft) O-NO 67 5 min 0,0 UV-I 21,2 C 29,2 C 5,0 km/h (1 Bft)
20.06.2013 09:20 25,2 C 26,9 C 24,8 C 29,6 C 29,6 C 4,4 C 79 % 79 % 100 % 1011,6 hPa 0,0 l/m 5,1 km/h (1 Bft) O-NO 67 5 min 0,0 UV-I 21,3 C 29,6 C 9,8 km/h (2 Bft)
20.06.2013 09:25 25,3 C 26,9 C 24,6 C 29,6 C 29,6 C 4,3 C 78 % 78 % 100 % 1011,6 hPa 0,0 l/m 5,8 km/h (2 Bft) O 90 5 min 0,0 UV-I 21,2 C 29,6 C 10,5 km/h (2 Bft)
20.06.2013 09:30 25,1 C 26,9 C 24,7 C 29,1 C 29,1 C 4,0 C 79 % 79 % 100 % 1011,6 hPa 0,0 l/m 7,4 km/h (2 Bft) S 180 5 min 0,0 UV-I 21,2 C 29,1 C 8,2 km/h (2 Bft)
20.06.2013 09:35 25,2 C 26,9 C 24,8 C 29,3 C 29,3 C 4,1 C 78 % 79 % 100 % 1011,4 hPa 0,0 l/m 6,9 km/h (2 Bft) O-NO 67 5 min 0,0 UV-I 21,1 C 29,3 C 4,2 km/h (1 Bft)
20.06.2013 09:40 25,3 C 26,9 C 24,9 C 29,8 C 29,8 C 4,5 C 79 % 80 % 100 % 1011,4 hPa 0,0 l/m 5,3 km/h (1 Bft) O 90 5 min 0,0 UV-I 21,4 C 29,8 C 7,4 km/h (2 Bft)
20.06.2013 09:45 25,3 C 26,9 C 24,9 C 29,8 C 29,8 C 4,5 C 78 % 78 % 100 % 1011,4 hPa 0,0 l/m 5,8 km/h (2 Bft) O-SO 112 5 min 0,0 UV-I 21,2 C 29,8 C 9,0 km/h (2 Bft)
20.06.2013 09:50 25,2 C 26,9 C 25,1 C 29,6 C 29,6 C 4,4 C 79 % 79 % 100 % 1011,4 hPa 0,0 l/m 7,1 km/h (2 Bft) O-SO 112 5 min 0,0 UV-I 21,3 C 29,6 C 6,8 km/h (2 Bft)
20.06.2013 09:55 25,2 C 26,9 C 25,1 C 29,6 C 29,6 C 4,4 C 78 % 78 % 100 % 1011,2 hPa 0,0 l/m 6,4 km/h (2 Bft) O-NO 67 5 min 0,0 UV-I 21,1 C 29,6 C 3,4 km/h (1 Bft)
20.06.2013 10:00 25,3 C 26,9 C 25,3 C 30,0 C 30,0 C 4,7 C 80 % 79 % 100 % 1011,2 hPa 0,0 l/m 4,8 km/h (1 Bft) O-NO 67 5 min 0,0 UV-I 21,6 C 30,0 C 5,8 km/h (2 Bft)
20.06.2013 10:05 25,5 C 26,9 C 25,2 C 30,3 C 30,3 C 4,8 C 79 % 79 % 100 % 1011,2 hPa 0,0 l/m 4,5 km/h (1 Bft) O 90 5 min 0,0 UV-I 21,6 C 30,3 C 4,8 km/h (1 Bft)
20.06.2013 10:10 25,7 C 26,9 C 25,2 C 30,4 C 30,4 C 4,7 C 78 % 78 % 100 % 1011,2 hPa 0,0 l/m 5,6 km/h (1 Bft) O-NO 67 5 min 0,0 UV-I 21,6 C 30,4 C 10,3 km/h (2 Bft)
20.06.2013 10:15 25,7 C 26,9 C 25,2 C 30,4 C 30,4 C 4,7 C 78 % 78 % 100 % 1010,8 hPa 0,0 l/m 5,1 km/h (1 Bft) S 180 5 min 0,0 UV-I 21,6 C 30,4 C 3,9 km/h (1 Bft)
20.06.2013 10:20 25,7 C 26,9 C 25,5 C 31,0 C 31,0 C 5,3 C 79 % 79 % 100 % 1010,8 hPa 0,0 l/m 4,0 km/h (1 Bft) O 90 5 min 0,0 UV-I 21,8 C 31,0 C 6,1 km/h (2 Bft)
20.06.2013 10:25 25,9 C 26,9 C 25,5 C 31,0 C 31,0 C 5,1 C 77 % 78 % 100 % 1010,8 hPa 0,0 l/m 4,3 km/h (1 Bft) NO 45 5 min 0,0 UV-I 21,5 C 31,0 C 11,4 km/h (2 Bft)
20.06.2013 10:30 26,0 C 27,0 C 25,6 C 30,8 C 30,8 C 4,8 C 78 % 78 % 100 % 1010,8 hPa 0,0 l/m 5,5 km/h (1 Bft) NW 315 5 min 0,0 UV-I 21,9 C 30,8 C 3,9 km/h (1 Bft)
20.06.2013 10:35 26,3 C 26,9 C 25,5 C 30,8 C 30,8 C 4,5 C 76 % 78 % 100 % 1010,8 hPa 0,0 l/m 6,1 km/h (2 Bft) O-NO 67 5 min 0,0 UV-I 21,7 C 30,8 C 10,0 km/h (2 Bft)
20.06.2013 10:40 26,3 C 26,8 C 25,7 C 30,4 C 30,4 C 4,1 C 77 % 78 % 100 % 1010,8 hPa 0,0 l/m 5,6 km/h (1 Bft) O-SO 112 5 min 0,0 UV-I 21,9 C 30,4 C 3,5 km/h (1 Bft)
20.06.2013 10:45 26,7 C 26,9 C 25,7 C 30,9 C 30,9 C 4,2 C 77 % 78 % 100 % 1010,8 hPa 0,0 l/m 5,1 km/h (1 Bft) SO 135 5 min 0,0 UV-I 22,3 C 30,9 C 1,9 km/h (1 Bft)
20.06.2013 10:50 26,9 C 26,9 C 25,7 C 31,4 C 31,4 C 4,5 C 76 % 78 % 100 % 1010,8 hPa 0,0 l/m 3,9 km/h (1 Bft) O-NO 67 5 min 0,0 UV-I 22,3 C 31,4 C 7,1 km/h (2 Bft)
20.06.2013 10:55 27,0 C 26,9 C 25,8 C 31,5 C 31,5 C 4,5 C 76 % 78 % 100 % 1010,8 hPa 0,0 l/m 3,2 km/h (1 Bft) NO 45 5 min 0,0 UV-I 22,4 C 31,5 C 0,0 km/h (0 Bft)
20.06.2013 11:00 27,2 C 26,9 C 25,9 C 32,0 C 32,0 C 4,8 C 75 % 78 % 100 % 1010,8 hPa 0,0 l/m 3,7 km/h (1 Bft) O-NO 67 5 min 0,0 UV-I 22,4 C 32,0 C 5,3 km/h (1 Bft)
20.06.2013 11:05 27,3 C 26,9 C 26,1 C 32,0 C 32,0 C 4,7 C 76 % 78 % 100 % 1010,8 hPa 0,0 l/m 4,0 km/h (1 Bft) O-NO 67 5 min 0,0 UV-I 22,7 C 32,0 C 3,9 km/h (1 Bft)
20.06.2013 11:10 27,6 C 26,9 C 26,3 C 32,3 C 32,3 C 4,7 C 75 % 78 % 100 % 1010,8 hPa 0,0 l/m 3,5 km/h (1 Bft) O-SO 112 5 min 0,0 UV-I 22,8 C 32,3 C 4,5 km/h (1 Bft)
20.06.2013 11:15 27,9 C 26,9 C 26,2 C 32,7 C 32,7 C 4,8 C 75 % 78 % 100 % 1010,8 hPa 0,0 l/m 2,9 km/h (1 Bft) SO 135 5 min 0,0 UV-I 23,0 C 32,7 C 6,6 km/h (2 Bft)
20.06.2013 11:20 27,9 C 26,9 C 26,5 C 33,1 C 33,1 C 5,2 C 75 % 77 % 100 % 1010,8 hPa 0,0 l/m 2,7 km/h (1 Bft) O 90 5 min 0,0 UV-I 23,0 C 33,1 C 2,7 km/h (1 Bft)
20.06.2013 11:25 27,9 C 26,9 C 26,5 C 33,3 C 33,3 C 5,4 C 75 % 77 % 100 % 1010,8 hPa 0,0 l/m 2,7 km/h (1 Bft) O-NO 67 5 min 0,0 UV-I 23,0 C 33,3 C 3,7 km/h (1 Bft)
20.06.2013 11:30 28,1 C 27,0 C 26,7 C 33,5 C 33,5 C 5,4 C 74 % 77 % 100 % 1010,8 hPa 0,0 l/m 2,4 km/h (1 Bft) O-NO 67 5 min 0,0 UV-I 23,0 C 33,5 C 2,9 km/h (1 Bft)
20.06.2013 11:35 28,1 C 27,0 C 26,7 C 33,9 C 33,9 C 5,8 C 74 % 77 % 100 % 1010,6 hPa 0,0 l/m 2,3 km/h (1 Bft) O 90 5 min 0,0 UV-I 23,0 C 33,9 C 4,3 km/h (1 Bft)
20.06.2013 11:40 28,3 C 27,0 C 26,7 C 34,0 C 34,0 C 5,7 C 72 % 77 % 100 % 1010,6 hPa 0,0 l/m 2,9 km/h (1 Bft) O-NO 67 5 min 0,0 UV-I 22,8 C 34,0 C 8,0 km/h (2 Bft)
20.06.2013 11:45 28,2 C 27,0 C 26,8 C 33,5 C 33,5 C 5,3 C 74 % 77 % 100 % 1010,6 hPa 0,0 l/m 3,9 km/h (1 Bft) O 90 5 min 0,0 UV-I 23,1 C 33,5 C 2,9 km/h (1 Bft)
20.06.2013 11:50 28,7 C 27,0 C 27,0 C 33,9 C 33,9 C 5,2 C 73 % 77 % 100 % 1010,6 hPa 0,0 l/m 3,4 km/h (1 Bft) O-NO 67 5 min 0,0 UV-I 23,4 C 33,9 C 4,0 km/h (1 Bft)
20.06.2013 11:55 28,7 C 27,0 C 27,1 C 34,2 C 34,2 C 5,5 C 72 % 77 % 100 % 1010,6 hPa 0,0 l/m 1,6 km/h (1 Bft) O-SO 112 5 min 0,0 UV-I 23,1 C 34,2 C 0,0 km/h (0 Bft)
20.06.2013 12:00 29,1 C 27,1 C 27,2 C 34,5 C 34,5 C 5,4 C 72 % 77 % 100 % 1010,6 hPa 0,0 l/m 2,4 km/h (1 Bft) O-NO 67 5 min 0,0 UV-I 23,5 C 34,5 C 6,8 km/h (2 Bft)
20.06.2013 12:05 29,1 C 27,1 C 27,3 C 34,3 C 34,3 C 5,2 C 71 % 77 % 100 % 1010,6 hPa 0,0 l/m 2,7 km/h (1 Bft) NO 45 5 min 0,0 UV-I 23,3 C 34,3 C 4,7 km/h (1 Bft)
20.06.2013 12:10 29,3 C 27,0 C 27,6 C 34,2 C 34,2 C 4,9 C 70 % 76 % 100 % 1010,6 hPa 0,0 l/m 3,9 km/h (1 Bft) O-NO 67 5 min 0,0 UV-I 23,2 C 34,2 C 2,4 km/h (1 Bft)
20.06.2013 12:15 29,5 C 27,0 C 27,7 C 34,5 C 34,5 C 5,0 C 71 % 75 % 100 % 1010,3 hPa 0,0 l/m 2,4 km/h (1 Bft) S 180 5 min 0,0 UV-I 23,7 C 34,5 C 0,0 km/h (0 Bft)
20.06.2013 12:20 30,3 C 27,0 C 27,5 C 35,9 C 35,9 C 5,6 C 70 % 76 % 100 % 1010,3 hPa 0,0 l/m 1,0 km/h (0 Bft) N 360 5 min 0,0 UV-I 24,2 C 35,9 C 2,1 km/h (1 Bft)
20.06.2013 12:25 30,4 C 27,0 C 27,7 C 36,3 C 36,3 C 5,9 C 68 % 76 % 100 % 1010,3 hPa 0,0 l/m 0,8 km/h (0 Bft) NW 315 5 min 0,0 UV-I 23,8 C 36,3 C 1,6 km/h (1 Bft)
20.06.2013 12:30 30,7 C 27,1 C 28,1 C 36,7 C 36,7 C 6,0 C 67 % 75 % 100 % 1010,3 hPa 0,0 l/m 1,0 km/h (0 Bft) SW 225 5 min 0,0 UV-I 23,8 C 36,7 C 0,0 km/h (0 Bft)
20.06.2013 12:35 31,0 C 27,1 C 28,0 C 36,8 C 36,8 C 5,8 C 67 % 76 % 100 % 1010,1 hPa 0,0 l/m 1,1 km/h (1 Bft) O 90 5 min 0,0 UV-I 24,1 C 36,8 C 3,4 km/h (1 Bft)
20.06.2013 12:41 31,1 C 27,1 C 28,2 C 36,8 C 36,8 C 5,7 C 67 % 76 % 100 % 1010,1 hPa 0,0 l/m 1,3 km/h (1 Bft) N 0 6 min 0,0 UV-I 24,2 C 36,8 C 3,7 km/h (1 Bft)
20.06.2013 13:00 31,2 C 27,1 C 28,9 C 35,9 C 35,9 C 4,7 C 65 % 75 % 100 % 1009,9 hPa 0,0 l/m 2,9 km/h (1 Bft) O 90 19 min 0,0 UV-I 23,8 C 35,9 C 0,0 km/h (0 Bft)
20.06.2013 13:05 31,6 C 27,1 C 29,0 C 36,3 C 36,3 C 4,7 C 65 % 75 % 100 % 1009,9 hPa 0,0 l/m 2,6 km/h (1 Bft) NO 45 5 min 0,0 UV-I 24,2 C 36,3 C 4,2 km/h (1 Bft)
20.06.2013 13:10 31,6 C 27,1 C 29,2 C 36,4 C 36,4 C 4,8 C 64 % 74 % 100 % 1009,9 hPa 0,0 l/m 2,3 km/h (1 Bft) NO 45 5 min 0,0 UV-I 23,9 C 36,4 C 3,4 km/h (1 Bft)
20.06.2013 13:15 31,6 C 27,1 C 29,6 C 36,6 C 36,6 C 5,0 C 63 % 74 % 100 % 1009,7 hPa 0,0 l/m 2,4 km/h (1 Bft) O 90 5 min 0,0 UV-I 23,7 C 36,6 C 2,9 km/h (1 Bft)
20.06.2013 13:20 31,8 C 27,2 C 29,6 C 36,7 C 36,7 C 4,9 C 63 % 73 % 100 % 1009,7 hPa 0,0 l/m 2,6 km/h (1 Bft) O-NO 67 5 min 0,0 UV-I 23,9 C 36,7 C 4,8 km/h (1 Bft)
20.06.2013 13:25 31,9 C 27,2 C 29,6 C 36,6 C 36,6 C 4,7 C 63 % 72 % 100 % 1009,7 hPa 0,0 l/m 2,3 km/h (1 Bft) O 90 5 min 0,0 UV-I 24,0 C 36,6 C 0,0 km/h (0 Bft)
20.06.2013 13:30 32,3 C 27,2 C 29,5 C 37,7 C 37,7 C 5,4 C 62 % 73 % 100 % 1009,7 hPa 0,0 l/m 1,1 km/h (1 Bft) O-NO 67 5 min 0,0 UV-I 24,1 C 37,7 C 2,3 km/h (1 Bft)
20.06.2013 13:35 32,7 C 27,2 C 29,5 C 38,0 C 38,0 C 5,3 C 63 % 74 % 100 % 1009,5 hPa 0,0 l/m 0,2 km/h (0 Bft) O-NO 67 5 min 0,0 UV-I 24,7 C 38,0 C 0,0 km/h (0 Bft)
20.06.2013 13:40 33,0 C 27,2 C 29,7 C 38,4 C 38,4 C 5,4 C 58 % 72 % 100 % 1009,5 hPa 0,0 l/m 1,0 km/h (0 Bft) NW 315 5 min 0,0 UV-I 23,6 C 38,4 C 2,4 km/h (1 Bft)
20.06.2013 13:45 33,0 C 27,3 C 29,9 C 38,5 C 38,5 C 5,5 C 59 % 72 % 100 % 1009,5 hPa 0,0 l/m 1,0 km/h (0 Bft) N-NW 337 5 min 0,0 UV-I 23,9 C 38,5 C 3,1 km/h (1 Bft)
20.06.2013 13:50 33,3 C 27,3 C 30,5 C 38,9 C 38,9 C 5,6 C 55 % 69 % 100 % 1009,5 hPa 0,0 l/m 1,1 km/h (1 Bft) NW 315 5 min 0,0 UV-I 23,0 C 38,9 C 4,0 km/h (1 Bft)
20.06.2013 13:55 33,1 C 27,3 C 31,0 C 38,7 C 38,7 C 5,6 C 57 % 66 % 100 % 1009,3 hPa 0,0 l/m 1,9 km/h (1 Bft) O-NO 67 5 min 0,0 UV-I 23,4 C 38,7 C 4,5 km/h (1 Bft)
20.06.2013 14:00 32,6 C 27,3 C 30,8 C 37,8 C 37,8 C 5,2 C 58 % 67 % 100 % 1009,3 hPa 0,0 l/m 3,2 km/h (1 Bft) O-NO 67 5 min 0,0 UV-I 23,2 C 37,8 C 2,7 km/h (1 Bft)
20.06.2013 14:05 32,4 C 27,3 C 30,9 C 37,5 C 37,5 C 5,1 C 58 % 66 % 100 % 1009,3 hPa 0,0 l/m 3,9 km/h (1 Bft) O 90 5 min 0,0 UV-I 23,0 C 37,5 C 7,7 km/h (2 Bft)
20.06.2013 14:10 32,3 C 27,4 C 30,8 C 37,0 C 37,0 C 4,7 C 59 % 66 % 100 % 1009,3 hPa 0,0 l/m 3,5 km/h (1 Bft) O 90 5 min 0,0 UV-I 23,2 C 37,0 C 2,3 km/h (1 Bft)
20.06.2013 14:15 32,3 C 27,4 C 30,6 C 37,0 C 37,0 C 4,7 C 58 % 66 % 100 % 1009,2 hPa 0,0 l/m 3,9 km/h (1 Bft) O-NO 67 5 min 0,0 UV-I 23,0 C 37,0 C 4,0 km/h (1 Bft)
20.06.2013 14:20 32,3 C 27,4 C 30,7 C 36,8 C 36,8 C 4,5 C 59 % 68 % 100 % 1009,2 hPa 0,0 l/m 3,4 km/h (1 Bft) O-NO 67 5 min 0,0 UV-I 23,2 C 36,8 C 1,6 km/h (1 Bft)
20.06.2013 14:25 32,5 C 27,4 C 30,6 C 37,2 C 37,2 C 4,7 C 61 % 69 % 100 % 1009,2 hPa 0,0 l/m 2,3 km/h (1 Bft) O-NO 67 5 min 0,0 UV-I 24,0 C 37,2 C 0,0 km/h (0 Bft)
20.06.2013 14:30 32,5 C 27,4 C 30,1 C 36,5 C 36,5 C 4,0 C 60 % 69 % 100 % 1009,2 hPa 0,0 l/m 0,5 km/h (0 Bft) N-NO 22 5 min 0,0 UV-I 23,7 C 36,5 C 0,0 km/h (0 Bft)
20.06.2013 14:35 32,3 C 27,4 C 29,8 C 35,4 C 35,4 C 3,1 C 61 % 70 % 82 % 1009,0 hPa 0,0 l/m 0,3 km/h (0 Bft) O-NO 67 0 min 0,0 UV-I 23,8 C 35,4 C 0,0 km/h (0 Bft)
20.06.2013 14:40 32,0 C 27,4 C 29,3 C 34,2 C 34,2 C 2,2 C 62 % 72 % 58 % 1009,0 hPa 0,0 l/m 0,2 km/h (0 Bft) O 90 0 min 0,0 UV-I 23,8 C 34,2 C 0,0 km/h (0 Bft)
20.06.2013 14:45 31,9 C 27,4 C 29,3 C 33,7 C 33,7 C 1,8 C 63 % 73 % 47 % 1009,0 hPa 0,0 l/m 0,3 km/h (0 Bft) O-NO 67 0 min 0,0 UV-I 24,0 C 33,7 C 0,0 km/h (0 Bft)
20.06.2013 14:50 31,8 C 27,6 C 29,1 C 33,2 C 33,2 C 1,4 C 64 % 73 % 37 % 1009,0 hPa 0,0 l/m 0,5 km/h (0 Bft) SW 225 0 min 0,0 UV-I 24,1 C 33,2 C 0,0 km/h (0 Bft)
20.06.2013 14:55 31,8 C 27,6 C 29,1 C 33,0 C 33,0 C 1,2 C 65 % 74 % 32 % 1008,4 hPa 0,0 l/m 0,2 km/h (0 Bft) N-NW 337 0 min 0,0 UV-I 24,4 C 33,0 C 0,0 km/h (0 Bft)
20.06.2013 15:00 31,9 C 27,6 C 29,1 C 32,9 C 32,9 C 1,0 C 66 % 74 % 26 % 1008,4 hPa 0,0 l/m 0,5 km/h (0 Bft) O-NO 67 0 min 0,0 UV-I 24,7 C 32,9 C 1,6 km/h (1 Bft)
20.06.2013 15:05 31,9 C 27,6 C 29,0 C 33,2 C 33,2 C 1,3 C 65 % 74 % 34 % 1008,4 hPa 0,0 l/m 1,0 km/h (0 Bft) NW 315 0 min 0,0 UV-I 24,5 C 33,2 C 4,3 km/h (1 Bft)
20.06.2013 15:10 31,8 C 27,6 C 29,5 C 33,3 C 33,3 C 1,5 C 66 % 74 % 39 % 1008,4 hPa 0,0 l/m 1,8 km/h (1 Bft) N-NW 337 0 min 0,0 UV-I 24,6 C 33,3 C 2,6 km/h (1 Bft)
20.06.2013 15:15 31,7 C 27,7 C 29,6 C 33,5 C 33,5 C 1,8 C 66 % 74 % 47 % 1008,4 hPa 0,0 l/m 2,4 km/h (1 Bft) W 270 0 min 0,0 UV-I 24,5 C 33,5 C 3,1 km/h (1 Bft)
20.06.2013 15:20 31,7 C 27,7 C 29,7 C 33,9 C 33,9 C 2,2 C 66 % 74 % 58 % 1008,4 hPa 0,0 l/m 1,8 km/h (1 Bft) N 360 0 min 0,0 UV-I 24,5 C 33,9 C 2,3 km/h (1 Bft)
20.06.2013 15:25 31,9 C 27,7 C 29,9 C 34,9 C 34,9 C 3,0 C 66 % 73 % 79 % 1008,4 hPa 0,0 l/m 2,3 km/h (1 Bft) N-NO 22 0 min 0,0 UV-I 24,7 C 34,9 C 6,3 km/h (2 Bft)
20.06.2013 15:30 32,3 C 27,6 C 30,3 C 36,5 C 36,5 C 4,2 C 66 % 73 % 100 % 1008,4 hPa 0,0 l/m 2,6 km/h (1 Bft) NW 315 5 min 0,0 UV-I 25,1 C 36,5 C 5,0 km/h (1 Bft)
20.06.2013 15:35 32,5 C 27,6 C 30,4 C 37,0 C 37,0 C 4,5 C 65 % 73 % 100 % 1007,9 hPa 0,0 l/m 2,9 km/h (1 Bft) N-NW 337 5 min 0,0 UV-I 25,0 C 37,0 C 5,1 km/h (1 Bft)
20.06.2013 15:40 32,5 C 27,6 C 30,6 C 37,5 C 37,5 C 5,0 C 64 % 72 % 100 % 1007,9 hPa 0,0 l/m 3,5 km/h (1 Bft) N-NO 22 5 min 0,0 UV-I 24,8 C 37,5 C 1,8 km/h (1 Bft)
20.06.2013 15:45 32,5 C 27,6 C 30,9 C 37,5 C 37,5 C 5,0 C 65 % 71 % 100 % 1007,9 hPa 0,0 l/m 3,7 km/h (1 Bft) S-SO 157 5 min 0,0 UV-I 25,0 C 37,5 C 2,6 km/h (1 Bft)
20.06.2013 15:50 32,7 C 27,7 C 30,8 C 37,9 C 37,9 C 5,2 C 65 % 71 % 100 % 1007,9 hPa 0,0 l/m 2,7 km/h (1 Bft) O-NO 67 5 min 0,0 UV-I 25,2 C 37,9 C 4,2 km/h (1 Bft)
20.06.2013 15:55 32,7 C 27,7 C 30,7 C 37,6 C 37,6 C 4,9 C 66 % 72 % 100 % 1008,1 hPa 0,0 l/m 1,9 km/h (1 Bft) O 90 5 min 0,0 UV-I 25,5 C 37,6 C 2,1 km/h (1 Bft)
20.06.2013 16:00 32,4 C 27,7 C 30,6 C 36,2 C 36,2 C 3,8 C 66 % 72 % 100 % 1008,1 hPa 0,0 l/m 2,3 km/h (1 Bft) O-SO 112 5 min 0,0 UV-I 25,2 C 36,2 C 0,0 km/h (0 Bft)
20.06.2013 16:05 32,2 C 27,7 C 30,3 C 35,5 C 35,5 C 3,3 C 67 % 73 % 87 % 1008,1 hPa 0,0 l/m 2,3 km/h (1 Bft) NW 315 5 min 0,0 UV-I 25,3 C 35,5 C 5,3 km/h (1 Bft)
20.06.2013 16:10 31,9 C 27,8 C 29,9 C 34,0 C 34,0 C 2,1 C 67 % 74 % 55 % 1008,1 hPa 0,0 l/m 1,0 km/h (0 Bft) O-NO 67 0 min 0,0 UV-I 25,0 C 34,0 C 0,0 km/h (0 Bft)
20.06.2013 16:15 31,7 C 27,8 C 29,9 C 33,3 C 33,3 C 1,6 C 67 % 74 % 42 % 1007,6 hPa 0,0 l/m 1,0 km/h (0 Bft) N-NO 22 0 min 0,0 UV-I 24,8 C 33,3 C 0,0 km/h (0 Bft)
20.06.2013 16:20 31,4 C 27,9 C 29,7 C 32,6 C 32,6 C 1,2 C 69 % 75 % 32 % 1007,6 hPa 0,0 l/m 0,8 km/h (0 Bft) N-NO 22 0 min 0,0 UV-I 25,0 C 32,6 C 3,2 km/h (1 Bft)
20.06.2013 16:25 31,3 C 27,9 C 29,6 C 32,2 C 32,2 C 0,9 C 69 % 75 % 24 % 1007,6 hPa 0,0 l/m 1,3 km/h (1 Bft) N-NO 22 0 min 0,0 UV-I 24,9 C 32,2 C 1,8 km/h (1 Bft)
20.06.2013 16:30 31,2 C 27,9 C 29,4 C 31,9 C 31,9 C 0,7 C 70 % 75 % 18 % 1007,6 hPa 0,0 l/m 1,8 km/h (1 Bft) O-SO 112 0 min 0,0 UV-I 25,1 C 31,9 C 0,0 km/h (0 Bft)
20.06.2013 16:35 31,1 C 27,9 C 29,2 C 31,8 C 31,8 C 0,7 C 71 % 76 % 18 % 1007,8 hPa 0,0 l/m 1,1 km/h (1 Bft) N-NW 337 0 min 0,0 UV-I 25,2 C 31,8 C 0,0 km/h (0 Bft)
20.06.2013 16:40 30,9 C 27,9 C 29,1 C 31,6 C 31,6 C 0,7 C 71 % 76 % 18 % 1007,8 hPa 0,0 l/m 0,3 km/h (0 Bft) O-SO 112 0 min 0,0 UV-I 25,0 C 31,6 C 0,0 km/h (0 Bft)
20.06.2013 16:45 30,8 C 27,9 C 29,1 C 31,4 C 31,4 C 0,6 C 71 % 77 % 16 % 1007,8 hPa 0,0 l/m 0,6 km/h (0 Bft) O-SO 112 0 min 0,0 UV-I 24,9 C 31,4 C 1,8 km/h (1 Bft)
20.06.2013 16:50 30,6 C 27,9 C 28,8 C 31,1 C 31,1 C 0,5 C 72 % 77 % 13 % 1007,8 hPa 0,0 l/m 0,5 km/h (0 Bft) O 90 0 min 0,0 UV-I 25,0 C 31,1 C 0,0 km/h (0 Bft)
20.06.2013 16:55 30,5 C 27,9 C 28,7 C 30,9 C 30,9 C 0,4 C 72 % 77 % 11 % 1007,7 hPa 0,0 l/m 0,3 km/h (0 Bft) S-SW 202 0 min 0,0 UV-I 24,9 C 30,9 C 0,0 km/h (0 Bft)
20.06.2013 17:00 30,4 C 28,0 C 28,5 C 30,6 C 30,6 C 0,2 C 73 % 77 % 5 % 1007,7 hPa 0,0 l/m 0,6 km/h (0 Bft) O-NO 67 0 min 0,0 UV-I 25,0 C 30,6 C 2,1 km/h (1 Bft)
20.06.2013 17:05 30,3 C 28,0 C 28,3 C 30,4 C 30,4 C 0,1 C 73 % 78 % 3 % 1007,7 hPa 0,0 l/m 0,5 km/h (0 Bft) O-SO 112 0 min 0,0 UV-I 24,9 C 30,4 C 0,0 km/h (0 Bft)
20.06.2013 17:10 30,0 C 28,0 C 28,2 C 30,1 C 30,1 C 0,1 C 74 % 78 % 3 % 1007,7 hPa 0,0 l/m 0,2 km/h (0 Bft) O-NO 67 0 min 0,0 UV-I 24,8 C 30,1 C 0,0 km/h (0 Bft)
20.06.2013 17:15 29,9 C 28,1 C 28,2 C 30,0 C 30,0 C 0,1 C 74 % 78 % 3 % 1007,6 hPa 0,0 l/m 0,2 km/h (0 Bft) O-NO 67 0 min 0,0 UV-I 24,7 C 30,0 C 0,0 km/h (0 Bft)
20.06.2013 17:20 29,7 C 28,1 C 28,0 C 29,8 C 29,8 C 0,1 C 74 % 78 % 3 % 1007,6 hPa 0,0 l/m 0,3 km/h (0 Bft) SO 135 0 min 0,0 UV-I 24,6 C 29,8 C 0,0 km/h (0 Bft)
20.06.2013 17:25 29,6 C 28,1 C 27,9 C 29,6 C 29,6 C 0,0 C 75 % 78 % 0 % 1007,6 hPa 0,0 l/m 0,0 km/h (0 Bft) SO 135 0 min 0,0 UV-I 24,7 C 29,6 C 0,0 km/h (0 Bft)
20.06.2013 17:30 29,5 C 28,2 C 27,7 C 29,5 C 29,4 C 0,0 C 75 % 79 % 0 % 1007,6 hPa 0,0 l/m 0,0 km/h (0 Bft) O-NO 67 0 min 0,0 UV-I 24,6 C 29,4 C 1,6 km/h (1 Bft)
20.06.2013 17:35 29,3 C 28,2 C 27,7 C 29,3 C 29,2 C 0,0 C 76 % 79 % 0 % 1007,0 hPa 0,0 l/m 0,5 km/h (0 Bft) SO 135 0 min 0,0 UV-I 24,6 C 29,2 C 0,0 km/h (0 Bft)
20.06.2013 17:40 29,1 C 28,2 C 27,5 C 29,1 C 29,0 C 0,0 C 77 % 79 % 0 % 1007,0 hPa 0,0 l/m 0,6 km/h (0 Bft) O-SO 112 0 min 0,0 UV-I 24,6 C 29,0 C 0,0 km/h (0 Bft)
20.06.2013 17:45 29,1 C 28,2 C 27,5 C 29,0 C 28,8 C 0,0 C 77 % 79 % 0 % 1007,0 hPa 0,0 l/m 0,2 km/h (0 Bft) O-NO 67 0 min 0,0 UV-I 24,6 C 28,8 C 0,0 km/h (0 Bft)
20.06.2013 17:50 28,9 C 28,3 C 27,3 C 28,8 C 28,6 C 0,0 C 78 % 80 % 0 % 1007,0 hPa 0,0 l/m 0,3 km/h (0 Bft) O 90 0 min 0,0 UV-I 24,7 C 28,6 C 2,3 km/h (1 Bft)
20.06.2013 17:55 28,8 C 28,3 C 27,4 C 28,7 C 28,5 C 0,0 C 78 % 80 % 0 % 1006,8 hPa 0,0 l/m 1,1 km/h (1 Bft) O 90 0 min 0,0 UV-I 24,6 C 28,5 C 3,4 km/h (1 Bft)
20.06.2013 18:00 28,6 C 28,3 C 27,3 C 28,5 C 28,4 C 0,0 C 79 % 80 % 0 % 1006,8 hPa 0,0 l/m 1,8 km/h (1 Bft) O-NO 67 0 min 0,0 UV-I 24,6 C 28,4 C 0,0 km/h (0 Bft)
20.06.2013 18:05 28,7 C 28,3 C 27,2 C 28,6 C 28,3 C 0,0 C 79 % 80 % 0 % 1006,8 hPa 0,0 l/m 1,0 km/h (0 Bft) O-SO 112 0 min 0,0 UV-I 24,7 C 28,3 C 0,0 km/h (0 Bft)
20.06.2013 18:10 28,5 C 28,4 C 27,1 C 28,4 C 28,3 C 0,0 C 79 % 80 % 0 % 1006,8 hPa 0,0 l/m 0,0 km/h (0 Bft) O-SO 112 0 min 0,0 UV-I 24,5 C 28,3 C 0,0 km/h (0 Bft)
20.06.2013 18:15 28,5 C 28,3 C 26,9 C 28,4 C 28,2 C 0,0 C 79 % 80 % 0 % 1007,0 hPa 0,0 l/m 0,2 km/h (0 Bft) SW 225 0 min 0,0 UV-I 24,5 C 28,2 C 0,0 km/h (0 Bft)
20.06.2013 18:20 28,4 C 28,3 C 26,9 C 28,3 C 28,1 C 0,0 C 79 % 80 % 0 % 1007,0 hPa 0,0 l/m 1,8 km/h (1 Bft) S-SW 202 0 min 0,0 UV-I 24,4 C 28,1 C 9,2 km/h (2 Bft)
20.06.2013 18:25 28,2 C 28,3 C 26,8 C 28,1 C 27,9 C 0,0 C 79 % 80 % 0 % 1007,0 hPa 0,0 l/m 3,4 km/h (1 Bft) S 180 0 min 0,0 UV-I 24,2 C 27,9 C 4,5 km/h (1 Bft)
20.06.2013 18:30 28,0 C 28,2 C 26,6 C 27,9 C 27,7 C 0,0 C 78 % 80 % 0 % 1007,0 hPa 0,0 l/m 5,1 km/h (1 Bft) S-SW 202 0 min 0,0 UV-I 23,8 C 27,7 C 5,5 km/h (1 Bft)
20.06.2013 18:35 27,9 C 28,2 C 26,5 C 27,7 C 27,3 C 0,0 C 76 % 79 % 0 % 1007,8 hPa 0,0 l/m 5,0 km/h (1 Bft) W-SW 247 0 min 0,0 UV-I 23,3 C 27,3 C 11,3 km/h (2 Bft)
20.06.2013 18:41 27,3 C 28,1 C 26,0 C 27,1 C 26,8 C 0,0 C 75 % 78 % 0 % 1007,8 hPa 0,0 l/m 3,9 km/h (1 Bft) N 0 0 min 0,0 UV-I 22,5 C 26,8 C 0,0 km/h (0 Bft)
20.06.2013 19:00 26,4 C 28,0 C 25,3 C 26,2 C 25,8 C 0,0 C 72 % 78 % 0 % 1007,8 hPa 0,0 l/m 1,4 km/h (1 Bft) S-SW 202 0 min 0,0 UV-I 20,9 C 25,8 C 2,3 km/h (1 Bft)
20.06.2013 19:05 26,3 C 28,0 C 25,1 C 26,1 C 25,6 C 0,0 C 72 % 77 % 0 % 1007,8 hPa 0,0 l/m 1,3 km/h (1 Bft) O-NO 67 0 min 0,0 UV-I 20,8 C 25,6 C 2,7 km/h (1 Bft)
20.06.2013 19:10 26,1 C 28,0 C 24,8 C 25,9 C 25,4 C 0,0 C 71 % 77 % 0 % 1007,8 hPa 0,0 l/m 1,4 km/h (1 Bft) SO 135 0 min 0,0 UV-I 20,4 C 25,4 C 4,8 km/h (1 Bft)
20.06.2013 19:15 25,9 C 28,0 C 24,8 C 25,7 C 25,2 C 0,0 C 71 % 76 % 0 % 1007,4 hPa 0,0 l/m 1,9 km/h (1 Bft) N 360 0 min 0,0 UV-I 20,2 C 25,2 C 1,8 km/h (1 Bft)
20.06.2013 19:20 25,5 C 28,0 C 24,7 C 25,3 C 25,0 C 0,0 C 67 % 74 % 0 % 1007,4 hPa 0,0 l/m 4,8 km/h (1 Bft) W-SW 247 0 min 0,0 UV-I 18,9 C 25,0 C 20,3 km/h (4 Bft)
20.06.2013 19:25 25,4 C 28,0 C 24,7 C 25,3 C 25,0 C 0,0 C 65 % 71 % 0 % 1007,4 hPa 0,0 l/m 8,5 km/h (2 Bft) W-NW 292 0 min 0,0 UV-I 18,3 C 25,0 C 20,4 km/h (4 Bft)
20.06.2013 19:30 25,1 C 28,0 C 24,4 C 25,0 C 24,7 C 0,0 C 64 % 69 % 0 % 1007,4 hPa 0,0 l/m 11,9 km/h (2 Bft) W-SW 247 0 min 0,0 UV-I 17,8 C 24,7 C 24,6 km/h (4 Bft)
20.06.2013 19:35 24,8 C 28,1 C 24,1 C 24,6 C 24,3 C 0,0 C 70 % 74 % 0 % 1008,1 hPa 0,0 l/m 10,6 km/h (2 Bft) W-NW 292 0 min 0,0 UV-I 18,9 C 24,3 C 8,0 km/h (2 Bft)
20.06.2013 19:40 23,9 C 28,1 C 23,5 C 23,7 C 23,3 C 0,0 C 73 % 76 % 0 % 1008,1 hPa 0,0 l/m 8,2 km/h (2 Bft) W-SW 247 0 min 0,0 UV-I 18,8 C 23,3 C 5,8 km/h (2 Bft)
20.06.2013 19:45 23,5 C 28,1 C 23,1 C 23,3 C 22,9 C 0,0 C 76 % 77 % 0 % 1008,1 hPa 0,0 l/m 7,4 km/h (2 Bft) NW 315 0 min 0,0 UV-I 19,0 C 22,9 C 8,2 km/h (2 Bft)
20.06.2013 19:50 22,8 C 28,3 C 22,4 C 22,5 C 22,0 C 0,0 C 77 % 78 % 0 % 1008,1 hPa 0,0 l/m 4,7 km/h (1 Bft) SO 135 0 min 0,0 UV-I 18,5 C 22,0 C 4,3 km/h (1 Bft)
20.06.2013 19:55 22,4 C 28,2 C 22,0 C 22,1 C 21,6 C 0,0 C 77 % 79 % 0 % 1008,8 hPa 0,0 l/m 4,2 km/h (1 Bft) N 360 0 min 0,0 UV-I 18,2 C 21,6 C 4,7 km/h (1 Bft)
20.06.2013 20:00 21,9 C 28,1 C 21,6 C 21,6 C 21,0 C 0,0 C 78 % 79 % 0 % 1008,8 hPa 0,0 l/m 2,9 km/h (1 Bft) O-SO 112 0 min 0,0 UV-I 17,9 C 21,0 C 0,0 km/h (0 Bft)
20.06.2013 20:05 21,7 C 28,1 C 21,7 C 21,4 C 20,8 C 0,0 C 78 % 78 % 0 % 1008,8 hPa 0,0 l/m 1,9 km/h (1 Bft) O-NO 67 0 min 0,0 UV-I 17,7 C 20,8 C 0,0 km/h (0 Bft)
20.06.2013 20:10 21,7 C 28,3 C 21,5 C 21,4 C 20,8 C 0,0 C 79 % 79 % 0 % 1008,8 hPa 0,0 l/m 1,4 km/h (1 Bft) O-NO 67 0 min 0,0 UV-I 17,9 C 20,8 C 3,4 km/h (1 Bft)
20.06.2013 20:15 21,5 C 28,6 C 21,1 C 21,1 C 20,4 C 0,0 C 81 % 80 % 0 % 1011,2 hPa 0,0 l/m 4,0 km/h (1 Bft) O-NO 67 0 min 0,0 UV-I 18,1 C 20,4 C 6,1 km/h (2 Bft)
20.06.2013 20:20 21,1 C 28,6 C 20,7 C 20,7 C 19,8 C 0,0 C 82 % 82 % 0 % 1011,2 hPa 0,0 l/m 3,9 km/h (1 Bft) SO 135 0 min 0,0 UV-I 17,9 C 19,8 C 2,6 km/h (1 Bft)
20.06.2013 20:25 20,9 C 28,5 C 20,5 C 20,5 C 19,6 C 0,0 C 82 % 82 % 0 % 1011,2 hPa 0,0 l/m 1,3 km/h (1 Bft) N-NW 337 0 min 0,0 UV-I 17,7 C 19,6 C 0,0 km/h (0 Bft)
20.06.2013 20:30 20,4 C 28,5 C 20,7 C 20,1 C 19,4 C 0,0 C 83 % 82 % 0 % 1011,2 hPa 0,0 l/m 1,3 km/h (1 Bft) SW 225 0 min 0,0 UV-I 17,4 C 19,4 C 3,1 km/h (1 Bft)
20.06.2013 20:35 20,3 C 28,5 C 20,7 C 20,0 C 19,4 C 0,0 C 83 % 83 % 0 % 1010,6 hPa 0,0 l/m 2,1 km/h (1 Bft) S-SW 202 0 min 0,0 UV-I 17,3 C 19,4 C 3,9 km/h (1 Bft)
20.06.2013 20:40 19,8 C 28,5 C 20,5 C 19,6 C 19,3 C 0,0 C 84 % 83 % 0 % 1010,6 hPa 0,0 l/m 1,9 km/h (1 Bft) S-SW 202 0 min 0,0 UV-I 17,0 C 19,3 C 0,0 km/h (0 Bft)
20.06.2013 20:45 19,6 C 28,5 C 20,3 C 19,5 C 19,3 C 0,0 C 84 % 83 % 0 % 1010,6 hPa 0,0 l/m 1,0 km/h (0 Bft) O 90 0 min 0,0 UV-I 16,8 C 19,3 C 0,0 km/h (0 Bft)
20.06.2013 20:50 19,5 C 28,4 C 20,1 C 19,4 C 19,2 C 0,0 C 85 % 84 % 0 % 1010,6 hPa 0,0 l/m 0,2 km/h (0 Bft) N-NW 337 0 min 0,0 UV-I 16,9 C 19,2 C 1,9 km/h (1 Bft)
20.06.2013 20:55 19,3 C 28,4 C 20,1 C 19,3 C 19,2 C 0,0 C 85 % 84 % 0 % 1010,6 hPa 0,0 l/m 0,6 km/h (0 Bft) W-SW 247 0 min 0,0 UV-I 16,7 C 19,2 C 4,0 km/h (1 Bft)
20.06.2013 21:00 19,3 C 28,4 C 19,9 C 19,3 C 19,3 C 0,0 C 86 % 84 % 0 % 1010,6 hPa 0,0 l/m 1,9 km/h (1 Bft) N 360 0 min 0,0 UV-I 16,9 C 19,3 C 3,5 km/h (1 Bft)
20.06.2013 21:05 19,2 C 28,4 C 19,9 C 19,3 C 19,3 C 0,1 C 86 % 84 % 3 % 1010,6 hPa 0,0 l/m 2,1 km/h (1 Bft) W-NW 292 0 min 0,0 UV-I 16,8 C 19,3 C 2,9 km/h (1 Bft)
20.06.2013 21:10 19,1 C 28,4 C 19,9 C 19,3 C 19,3 C 0,2 C 86 % 84 % 5 % 1010,6 hPa 0,0 l/m 2,3 km/h (1 Bft) S 180 0 min 0,0 UV-I 16,7 C 19,3 C 4,2 km/h (1 Bft)
20.06.2013 21:15 19,1 C 28,4 C 19,9 C 19,2 C 19,2 C 0,1 C 86 % 85 % 0 % 1009,4 hPa 0,0 l/m 1,9 km/h (1 Bft) O 90 0 min 0,0 UV-I 16,7 C 19,2 C 1,9 km/h (1 Bft)
20.06.2013 21:20 19,0 C 28,3 C 19,9 C 19,2 C 19,2 C 0,2 C 87 % 85 % 0 % 1009,4 hPa 0,0 l/m 2,4 km/h (1 Bft) O 90 0 min 0,0 UV-I 16,8 C 19,2 C 2,9 km/h (1 Bft)
20.06.2013 21:25 18,9 C 28,3 C 19,9 C 19,2 C 19,2 C 0,3 C 87 % 85 % 0 % 1009,4 hPa 0,0 l/m 2,4 km/h (1 Bft) O-NO 67 0 min 0,0 UV-I 16,7 C 19,2 C 2,3 km/h (1 Bft)
20.06.2013 21:30 18,8 C 28,3 C 19,6 C 19,1 C 19,1 C 0,3 C 88 % 85 % 0 % 1009,4 hPa 0,0 l/m 2,9 km/h (1 Bft) O-NO 67 0 min 0,0 UV-I 16,8 C 19,1 C 5,1 km/h (1 Bft)
20.06.2013 21:35 18,8 C 28,4 C 19,6 C 19,0 C 19,0 C 0,2 C 88 % 85 % 0 % 1008,6 hPa 0,0 l/m 3,7 km/h (1 Bft) O-SO 112 0 min 0,0 UV-I 16,8 C 19,0 C 3,4 km/h (1 Bft)
20.06.2013 21:40 18,7 C 28,4 C 19,5 C 18,9 C 18,9 C 0,2 C 88 % 85 % 0 % 1008,6 hPa 0,0 l/m 3,7 km/h (1 Bft) NO 45 0 min 0,0 UV-I 16,7 C 18,9 C 3,7 km/h (1 Bft)
20.06.2013 21:45 18,7 C 28,4 C 19,5 C 18,9 C 18,9 C 0,2 C 88 % 85 % 0 % 1008,6 hPa 0,0 l/m 3,1 km/h (1 Bft) NO 45 0 min 0,0 UV-I 16,7 C 18,9 C 3,1 km/h (1 Bft)
20.06.2013 21:50 18,7 C 28,3 C 19,5 C 18,9 C 18,9 C 0,2 C 88 % 85 % 0 % 1008,6 hPa 0,0 l/m 3,2 km/h (1 Bft) O 90 0 min 0,0 UV-I 16,7 C 18,9 C 5,5 km/h (1 Bft)
20.06.2013 21:55 18,7 C 28,3 C 19,5 C 18,9 C 18,9 C 0,2 C 88 % 85 % 0 % 1008,6 hPa 0,0 l/m 4,3 km/h (1 Bft) O-SO 112 0 min 0,0 UV-I 16,7 C 18,9 C 6,1 km/h (2 Bft)
20.06.2013 22:00 18,7 C 28,3 C 19,3 C 18,8 C 18,8 C 0,1 C 88 % 86 % 0 % 1008,6 hPa 0,0 l/m 5,5 km/h (1 Bft) O-SO 112 0 min 0,0 UV-I 16,7 C 18,8 C 8,5 km/h (2 Bft)
20.06.2013 22:05 18,6 C 28,3 C 19,3 C 18,8 C 18,8 C 0,2 C 88 % 86 % 0 % 1008,6 hPa 0,0 l/m 5,5 km/h (1 Bft) O-NO 67 0 min 0,0 UV-I 16,6 C 18,8 C 6,1 km/h (2 Bft)
20.06.2013 22:10 18,7 C 28,3 C 19,3 C 18,9 C 18,9 C 0,2 C 88 % 86 % 0 % 1008,6 hPa 0,0 l/m 7,2 km/h (2 Bft) O-NO 67 0 min 0,0 UV-I 16,7 C 18,9 C 8,9 km/h (2 Bft)
20.06.2013 22:15 18,7 C 28,3 C 19,1 C 18,9 C 18,9 C 0,2 C 88 % 86 % 0 % 1009,8 hPa 0,0 l/m 6,8 km/h (2 Bft) NO 45 0 min 0,0 UV-I 16,7 C 18,9 C 3,2 km/h (1 Bft)
20.06.2013 22:20 18,5 C 28,3 C 19,0 C 18,9 C 18,9 C 0,4 C 87 % 86 % 0 % 1009,8 hPa 0,0 l/m 5,0 km/h (1 Bft) O-NO 67 0 min 0,0 UV-I 16,3 C 18,9 C 7,7 km/h (2 Bft)
20.06.2013 22:25 18,5 C 28,2 C 19,1 C 18,7 C 18,7 C 0,2 C 87 % 86 % 0 % 1009,8 hPa 0,0 l/m 4,3 km/h (1 Bft) O-SO 112 0 min 0,0 UV-I 16,3 C 18,7 C 3,4 km/h (1 Bft)
20.06.2013 22:30 18,4 C 28,2 C 19,1 C 18,6 C 18,6 C 0,2 C 87 % 86 % 0 % 1009,8 hPa 0,7 l/m 3,5 km/h (1 Bft) O-SO 112 0 min 0,0 UV-I 16,2 C 18,6 C 5,3 km/h (1 Bft)
20.06.2013 22:35 18,5 C 28,2 C 19,1 C 18,5 C 18,5 C 0,0 C 87 % 86 % 0 % 1010,8 hPa 0,0 l/m 2,6 km/h (1 Bft) W-NW 292 0 min 0,0 UV-I 16,3 C 18,5 C 4,2 km/h (1 Bft)
20.06.2013 22:40 18,4 C 28,2 C 19,1 C 18,5 C 18,5 C 0,1 C 87 % 86 % 0 % 1010,8 hPa 0,0 l/m 1,9 km/h (1 Bft) O-SO 112 0 min 0,0 UV-I 16,2 C 18,5 C 6,3 km/h (2 Bft)
20.06.2013 22:45 18,3 C 28,2 C 19,0 C 18,5 C 18,5 C 0,2 C 87 % 86 % 0 % 1010,8 hPa 0,0 l/m 2,4 km/h (1 Bft) O-SO 112 0 min 0,0 UV-I 16,1 C 18,5 C 0,0 km/h (0 Bft)
20.06.2013 22:50 18,3 C 28,2 C 19,1 C 18,4 C 18,4 C 0,1 C 88 % 86 % 0 % 1010,8 hPa 0,0 l/m 1,9 km/h (1 Bft) W-SW 247 0 min 0,0 UV-I 16,3 C 18,4 C 1,9 km/h (1 Bft)
20.06.2013 22:55 18,3 C 28,2 C 19,1 C 18,4 C 18,4 C 0,1 C 88 % 86 % 0 % 1010,7 hPa 0,0 l/m 1,4 km/h (1 Bft) S 180 0 min 0,0 UV-I 16,3 C 18,4 C 1,8 km/h (1 Bft)
20.06.2013 23:00 18,3 C 28,1 C 19,1 C 18,4 C 18,4 C 0,1 C 88 % 86 % 0 % 1010,7 hPa 0,7 l/m 0,8 km/h (0 Bft) S 180 0 min 0,0 UV-I 16,3 C 18,4 C 2,1 km/h (1 Bft)
20.06.2013 23:05 18,2 C 28,1 C 19,1 C 18,4 C 18,4 C 0,2 C 88 % 87 % 0 % 1010,7 hPa 0,0 l/m 0,3 km/h (0 Bft) W-NW 292 0 min 0,0 UV-I 16,2 C 18,4 C 0,0 km/h (0 Bft)
20.06.2013 23:10 18,3 C 28,1 C 19,2 C 18,4 C 18,4 C 0,1 C 88 % 87 % 0 % 1010,7 hPa 0,0 l/m 0,5 km/h (0 Bft) SO 135 0 min 0,0 UV-I 16,3 C 18,4 C 1,9 km/h (1 Bft)
20.06.2013 23:15 18,2 C 28,1 C 19,1 C 18,3 C 18,3 C 0,1 C 88 % 87 % 0 % 1012,7 hPa 0,0 l/m 0,6 km/h (0 Bft) S-SW 202 0 min 0,0 UV-I 16,2 C 18,3 C 0,0 km/h (0 Bft)
20.06.2013 23:20 18,2 C 28,1 C 19,2 C 18,4 C 18,4 C 0,2 C 88 % 87 % 0 % 1012,7 hPa 0,0 l/m 1,0 km/h (0 Bft) SW 225 0 min 0,0 UV-I 16,2 C 18,4 C 2,7 km/h (1 Bft)
20.06.2013 23:25 18,3 C 28,1 C 19,1 C 18,5 C 18,5 C 0,2 C 89 % 87 % 0 % 1012,7 hPa 0,0 l/m 1,1 km/h (1 Bft) SO 135 0 min 0,0 UV-I 16,5 C 18,5 C 1,8 km/h (1 Bft)
20.06.2013 23:30 18,2 C 28,0 C 19,1 C 18,5 C 18,5 C 0,3 C 89 % 87 % 0 % 1012,7 hPa 0,0 l/m 0,6 km/h (0 Bft) S 180 0 min 0,0 UV-I 16,4 C 18,5 C 0,0 km/h (0 Bft)
20.06.2013 23:35 18,3 C 28,0 C 19,1 C 18,5 C 18,5 C 0,2 C 89 % 87 % 0 % 1012,8 hPa 0,0 l/m 0,6 km/h (0 Bft) N-NW 337 0 min 0,0 UV-I 16,5 C 18,5 C 2,3 km/h (1 Bft)
20.06.2013 23:40 18,2 C 28,0 C 19,2 C 18,5 C 18,5 C 0,3 C 89 % 87 % 0 % 1012,8 hPa 0,7 l/m 0,5 km/h (0 Bft) SO 135 0 min 0,0 UV-I 16,4 C 18,5 C 0,0 km/h (0 Bft)
20.06.2013 23:45 18,2 C 28,0 C 19,1 C 18,5 C 18,5 C 0,3 C 89 % 87 % 0 % 1012,8 hPa 0,0 l/m 0,3 km/h (0 Bft) W-SW 247 0 min 0,0 UV-I 16,4 C 18,5 C 0,0 km/h (0 Bft)
20.06.2013 23:50 18,2 C 28,0 C 19,1 C 18,5 C 18,5 C 0,3 C 89 % 87 % 0 % 1012,8 hPa 0,0 l/m 0,3 km/h (0 Bft) O-NO 67 0 min 0,0 UV-I 16,4 C 18,5 C 0,0 km/h (0 Bft)
20.06.2013 23:55 18,2 C 27,9 C 19,1 C 18,5 C 18,5 C 0,3 C 89 % 87 % 0 % 1013,2 hPa 0,0 l/m 0,3 km/h (0 Bft) W-SW 247 0 min 0,0 UV-I 16,4 C 18,5 C 0,0 km/h (0 Bft)
_ Min-Zeit 23:05 10:40 22:20 23:15 23:15 00:00 13:50 13:55 00:00 17:55 - 00:00 - - - 00:00 22:45 23:15 00:00
Minimum _ 18,2 C 26,8 C 19,0 C 18,3 C 18,3 C 0,0 C 55 % 66 % 0 % 1006,8 hPa - 0,0 km/h (0 Bft) - - - 0,0 UV-I 16,1 C 18,3 C 0,0 km/h (0 Bft)
_ Max-Zeit 13:50 20:15 13:55 13:50 13:50 08:00 23:25 23:05 07:15 23:55 05:00 19:30 - - 07:00 06:20 15:55 13:50 19:30
Maximum _ 33,3 C 28,6 C 31,0 C 38,9 C 38,9 C 6,2 C 89 % 87 % 100 % 1013,2 hPa 0,7 l/m 11,9 km/h
W-SW (2 Bft)
- - 19 min 0,7 UV-I 25,5 C 38,9 C 24,6 km/h
W-SW (4 Bft)
Durchschnitt _ 24,6 C 27,6 C 24,2 C 26,5 C 26,4 C 1,9 C 78 % 79 % 39 % 1009,7 hPa #6,2 l/m 2,0 km/h (1 Bft) O-NO - #8:29 h 0,4 UV-I 20,4 C 26,4 C 2,7 km/h (1 Bft)
2013 www.wetterstation-wechselburg.de